sensor_id;sensor_type;location;lat;lon;timestamp;temperature;humidity
13684;DHT22;6914;53.552;9.908;2023-01-19T00:01:19;1.60;99.90
13684;DHT22;6914;53.552;9.908;2023-01-19T00:03:47;1.60;99.90
13684;DHT22;6914;53.552;9.908;2023-01-19T00:06:14;1.60;99.90
13684;DHT22;6914;53.552;9.908;2023-01-19T00:08:41;1.60;99.90
13684;DHT22;6914;53.552;9.908;2023-01-19T00:11:09;1.60;99.90
13684;DHT22;6914;53.552;9.908;2023-01-19T00:13:36;1.60;99.90
13684;DHT22;6914;53.552;9.908;2023-01-19T00:16:03;0.90;99.90
13684;DHT22;6914;53.552;9.908;2023-01-19T00:18:30;1.60;99.90
13684;DHT22;6914;53.552;9.908;2023-01-19T00:20:58;1.60;99.90
13684;DHT22;6914;53.552;9.908;2023-01-19T00:23:25;1.60;99.90
13684;DHT22;6914;53.552;9.908;2023-01-19T00:25:52;1.70;99.90
13684;DHT22;6914;53.552;9.908;2023-01-19T00:28:19;1.60;99.90
13684;DHT22;6914;53.552;9.908;2023-01-19T00:30:45;1.70;99.90
13684;DHT22;6914;53.552;9.908;2023-01-19T00:33:12;1.70;99.90
13684;DHT22;6914;53.552;9.908;2023-01-19T00:35:40;1.80;99.90
13684;DHT22;6914;53.552;9.908;2023-01-19T00:38:09;1.70;99.90
13684;DHT22;6914;53.552;9.908;2023-01-19T00:40:36;1.70;99.90
13684;DHT22;6914;53.552;9.908;2023-01-19T00:43:04;1.60;99.90
13684;DHT22;6914;53.552;9.908;2023-01-19T00:45:30;1.60;99.90
13684;DHT22;6914;53.552;9.908;2023-01-19T00:47:57;1.70;99.90
13684;DHT22;6914;53.552;9.908;2023-01-19T00:50:25;2.20;99.90
13684;DHT22;6914;53.552;9.908;2023-01-19T00:52:53;1.70;99.90
13684;DHT22;6914;53.552;9.908;2023-01-19T00:55:22;1.70;99.90
13684;DHT22;6914;53.552;9.908;2023-01-19T00:57:49;1.90;99.90
13684;DHT22;6914;53.552;9.908;2023-01-19T01:00:17;1.90;99.90
13684;DHT22;6914;53.552;9.908;2023-01-19T01:02:45;1.70;99.90
13684;DHT22;6914;53.552;9.908;2023-01-19T01:05:13;1.70;99.90
13684;DHT22;6914;53.552;9.908;2023-01-19T01:07:40;2.30;99.90
13684;DHT22;6914;53.552;9.908;2023-01-19T01:10:12;1.80;99.90
13684;DHT22;6914;53.552;9.908;2023-01-19T01:12:41;1.80;99.90
13684;DHT22;6914;53.552;9.908;2023-01-19T01:15:10;1.80;99.90
13684;DHT22;6914;53.552;9.908;2023-01-19T01:17:38;1.50;99.90
13684;DHT22;6914;53.552;9.908;2023-01-19T01:20:13;1.80;99.90
13684;DHT22;6914;53.552;9.908;2023-01-19T01:22:43;1.80;99.90
13684;DHT22;6914;53.552;9.908;2023-01-19T01:25:11;1.80;99.90
13684;DHT22;6914;53.552;9.908;2023-01-19T01:27:38;1.80;99.90
13684;DHT22;6914;53.552;9.908;2023-01-19T01:30:09;1.80;99.90
13684;DHT22;6914;53.552;9.908;2023-01-19T01:32:36;1.80;99.90
13684;DHT22;6914;53.552;9.908;2023-01-19T01:35:04;1.80;99.90
13684;DHT22;6914;53.552;9.908;2023-01-19T01:37:33;1.80;99.90
13684;DHT22;6914;53.552;9.908;2023-01-19T01:40:00;1.50;99.90
13684;DHT22;6914;53.552;9.908;2023-01-19T01:42:28;1.80;99.90
13684;DHT22;6914;53.552;9.908;2023-01-19T01:44:57;1.80;99.90
13684;DHT22;6914;53.552;9.908;2023-01-19T01:47:31;2.20;99.90
13684;DHT22;6914;53.552;9.908;2023-01-19T01:50:05;1.90;99.90
13684;DHT22;6914;53.552;9.908;2023-01-19T01:52:36;1.90;99.90
13684;DHT22;6914;53.552;9.908;2023-01-19T01:55:06;3.10;99.90
13684;DHT22;6914;53.552;9.908;2023-01-19T01:57:37;1.90;99.90
13684;DHT22;6914;53.552;9.908;2023-01-19T02:00:06;1.90;99.90
13684;DHT22;6914;53.552;9.908;2023-01-19T02:02:36;1.90;99.90
13684;DHT22;6914;53.552;9.908;2023-01-19T02:05:23;2.10;99.90
13684;DHT22;6914;53.552;9.908;2023-01-19T02:07:56;1.90;99.90
13684;DHT22;6914;53.552;9.908;2023-01-19T02:10:42;3.20;99.90
13684;DHT22;6914;53.552;9.908;2023-01-19T02:13:28;1.90;99.90
13684;DHT22;6914;53.552;9.908;2023-01-19T02:15:57;1.80;99.90
13684;DHT22;6914;53.552;9.908;2023-01-19T02:18:27;1.90;99.90
13684;DHT22;6914;53.552;9.908;2023-01-19T02:20:59;2.00;99.90
13684;DHT22;6914;53.552;9.908;2023-01-19T02:23:37;1.90;99.90
13684;DHT22;6914;53.552;9.908;2023-01-19T02:26:08;2.10;99.90
13684;DHT22;6914;53.552;9.908;2023-01-19T02:28:38;2.00;99.90
13684;DHT22;6914;53.552;9.908;2023-01-19T02:31:07;2.00;99.90
13684;DHT22;6914;53.552;9.908;2023-01-19T02:33:36;2.20;99.90
13684;DHT22;6914;53.552;9.908;2023-01-19T02:36:05;2.10;99.90
13684;DHT22;6914;53.552;9.908;2023-01-19T02:38:37;2.00;99.90
13684;DHT22;6914;53.552;9.908;2023-01-19T02:41:08;2.00;99.90
13684;DHT22;6914;53.552;9.908;2023-01-19T02:43:37;2.10;99.90
13684;DHT22;6914;53.552;9.908;2023-01-19T02:46:06;2.10;99.90
13684;DHT22;6914;53.552;9.908;2023-01-19T02:48:33;3.10;99.90
13684;DHT22;6914;53.552;9.908;2023-01-19T02:51:01;2.10;99.90
13684;DHT22;6914;53.552;9.908;2023-01-19T02:53:52;2.10;99.90
13684;DHT22;6914;53.552;9.908;2023-01-19T02:56:42;2.10;99.90
13684;DHT22;6914;53.552;9.908;2023-01-19T02:59:19;2.30;99.90
13684;DHT22;6914;53.552;9.908;2023-01-19T03:01:58;2.10;99.90
13684;DHT22;6914;53.552;9.908;2023-01-19T03:04:34;2.10;99.90
13684;DHT22;6914;53.552;9.908;2023-01-19T03:07:10;2.00;99.90
13684;DHT22;6914;53.552;9.908;2023-01-19T03:09:42;2.10;99.90
13684;DHT22;6914;53.552;9.908;2023-01-19T03:12:20;2.00;99.90
13684;DHT22;6914;53.552;9.908;2023-01-19T03:14:50;2.00;99.90
13684;DHT22;6914;53.552;9.908;2023-01-19T03:17:20;2.00;99.90
13684;DHT22;6914;53.552;9.908;2023-01-19T03:19:48;2.30;99.90
13684;DHT22;6914;53.552;9.908;2023-01-19T03:22:19;1.90;99.90
13684;DHT22;6914;53.552;9.908;2023-01-19T03:24:49;1.90;99.90
13684;DHT22;6914;53.552;9.908;2023-01-19T03:27:23;2.00;99.90
13684;DHT22;6914;53.552;9.908;2023-01-19T03:29:52;2.00;99.90
13684;DHT22;6914;53.552;9.908;2023-01-19T03:32:23;2.90;99.90
13684;DHT22;6914;53.552;9.908;2023-01-19T03:34:55;1.90;99.90
13684;DHT22;6914;53.552;9.908;2023-01-19T03:37:23;2.00;99.90
13684;DHT22;6914;53.552;9.908;2023-01-19T03:39:53;2.30;99.90
13684;DHT22;6914;53.552;9.908;2023-01-19T03:42:20;2.00;99.90
13684;DHT22;6914;53.552;9.908;2023-01-19T03:44:49;1.60;99.90
13684;DHT22;6914;53.552;9.908;2023-01-19T03:47:20;1.90;99.90
13684;DHT22;6914;53.552;9.908;2023-01-19T03:49:48;2.00;99.90
13684;DHT22;6914;53.552;9.908;2023-01-19T03:52:17;3.00;99.90
13684;DHT22;6914;53.552;9.908;2023-01-19T03:54:52;2.50;99.90
13684;DHT22;6914;53.552;9.908;2023-01-19T03:57:19;2.20;99.90
13684;DHT22;6914;53.552;9.908;2023-01-19T03:59:46;1.90;99.90
13684;DHT22;6914;53.552;9.908;2023-01-19T04:02:14;2.00;99.90
13684;DHT22;6914;53.552;9.908;2023-01-19T04:04:41;2.00;99.90
13684;DHT22;6914;53.552;9.908;2023-01-19T04:07:09;2.00;99.90
13684;DHT22;6914;53.552;9.908;2023-01-19T04:09:37;2.00;99.90
13684;DHT22;6914;53.552;9.908;2023-01-19T04:12:06;2.00;99.90
13684;DHT22;6914;53.552;9.908;2023-01-19T04:14:33;2.00;99.90
13684;DHT22;6914;53.552;9.908;2023-01-19T04:17:00;2.00;99.90
13684;DHT22;6914;53.552;9.908;2023-01-19T04:19:27;2.00;99.90
13684;DHT22;6914;53.552;9.908;2023-01-19T04:21:53;2.10;99.90
13684;DHT22;6914;53.552;9.908;2023-01-19T04:24:21;1.90;99.90
13684;DHT22;6914;53.552;9.908;2023-01-19T04:26:50;2.00;99.90
13684;DHT22;6914;53.552;9.908;2023-01-19T04:29:19;2.10;99.90
13684;DHT22;6914;53.552;9.908;2023-01-19T04:31:45;3.20;99.90
13684;DHT22;6914;53.552;9.908;2023-01-19T04:34:12;2.00;99.90
13684;DHT22;6914;53.552;9.908;2023-01-19T04:36:39;2.00;99.90
13684;DHT22;6914;53.552;9.908;2023-01-19T04:39:06;2.00;99.90
13684;DHT22;6914;53.552;9.908;2023-01-19T04:41:35;2.10;99.90
13684;DHT22;6914;53.552;9.908;2023-01-19T04:44:02;2.30;99.90
13684;DHT22;6914;53.552;9.908;2023-01-19T04:46:30;2.00;99.90
13684;DHT22;6914;53.552;9.908;2023-01-19T04:48:57;2.00;99.90
13684;DHT22;6914;53.552;9.908;2023-01-19T04:51:24;2.00;99.90
13684;DHT22;6914;53.552;9.908;2023-01-19T04:53:53;2.00;99.90
13684;DHT22;6914;53.552;9.908;2023-01-19T04:56:20;2.00;99.90
13684;DHT22;6914;53.552;9.908;2023-01-19T04:58:47;2.00;99.90
13684;DHT22;6914;53.552;9.908;2023-01-19T05:01:14;2.00;99.90
13684;DHT22;6914;53.552;9.908;2023-01-19T05:03:42;2.00;99.90
13684;DHT22;6914;53.552;9.908;2023-01-19T05:06:09;1.90;99.90
13684;DHT22;6914;53.552;9.908;2023-01-19T05:08:37;2.40;99.90
13684;DHT22;6914;53.552;9.908;2023-01-19T05:11:04;2.50;99.90
13684;DHT22;6914;53.552;9.908;2023-01-19T05:13:31;2.10;99.90
13684;DHT22;6914;53.552;9.908;2023-01-19T05:15:58;2.10;99.90
13684;DHT22;6914;53.552;9.908;2023-01-19T05:18:25;1.90;99.90
13684;DHT22;6914;53.552;9.908;2023-01-19T05:20:53;1.60;99.90
13684;DHT22;6914;53.552;9.908;2023-01-19T05:23:20;2.00;99.90
13684;DHT22;6914;53.552;9.908;2023-01-19T05:25:47;2.00;99.90
13684;DHT22;6914;53.552;9.908;2023-01-19T05:28:14;2.00;99.90
13684;DHT22;6914;53.552;9.908;2023-01-19T05:30:41;2.00;99.90
13684;DHT22;6914;53.552;9.908;2023-01-19T05:33:11;2.00;99.90
13684;DHT22;6914;53.552;9.908;2023-01-19T05:35:41;2.30;99.90
13684;DHT22;6914;53.552;9.908;2023-01-19T05:38:10;2.00;99.90
13684;DHT22;6914;53.552;9.908;2023-01-19T05:40:37;1.80;99.90
13684;DHT22;6914;53.552;9.908;2023-01-19T05:43:04;2.00;99.90
13684;DHT22;6914;53.552;9.908;2023-01-19T05:45:34;2.00;99.90
13684;DHT22;6914;53.552;9.908;2023-01-19T05:48:03;2.00;99.90
13684;DHT22;6914;53.552;9.908;2023-01-19T05:50:30;3.70;99.90
13684;DHT22;6914;53.552;9.908;2023-01-19T05:52:57;2.00;99.90
13684;DHT22;6914;53.552;9.908;2023-01-19T05:55:26;2.00;99.90
13684;DHT22;6914;53.552;9.908;2023-01-19T05:57:53;2.00;99.90
13684;DHT22;6914;53.552;9.908;2023-01-19T06:00:20;2.10;99.90
13684;DHT22;6914;53.552;9.908;2023-01-19T06:02:47;2.00;99.90
13684;DHT22;6914;53.552;9.908;2023-01-19T06:05:14;2.00;99.90
13684;DHT22;6914;53.552;9.908;2023-01-19T06:07:41;2.20;99.90
13684;DHT22;6914;53.552;9.908;2023-01-19T06:10:09;2.00;99.90
13684;DHT22;6914;53.552;9.908;2023-01-19T06:12:39;1.90;99.90
13684;DHT22;6914;53.552;9.908;2023-01-19T06:15:07;2.60;99.90
13684;DHT22;6914;53.552;9.908;2023-01-19T06:17:34;2.00;99.90
13684;DHT22;6914;53.552;9.908;2023-01-19T06:20:01;2.00;99.90
13684;DHT22;6914;53.552;9.908;2023-01-19T06:22:29;2.00;99.90
13684;DHT22;6914;53.552;9.908;2023-01-19T06:24:56;1.50;99.90
13684;DHT22;6914;53.552;9.908;2023-01-19T06:27:23;2.00;99.90
13684;DHT22;6914;53.552;9.908;2023-01-19T06:29:51;1.90;99.90
13684;DHT22;6914;53.552;9.908;2023-01-19T06:32:19;2.00;99.90
13684;DHT22;6914;53.552;9.908;2023-01-19T06:34:46;1.90;99.90
13684;DHT22;6914;53.552;9.908;2023-01-19T06:37:13;1.70;99.90
13684;DHT22;6914;53.552;9.908;2023-01-19T06:39:41;1.90;99.90
13684;DHT22;6914;53.552;9.908;2023-01-19T06:42:10;2.00;99.90
13684;DHT22;6914;53.552;9.908;2023-01-19T06:44:41;1.90;99.90
13684;DHT22;6914;53.552;9.908;2023-01-19T06:47:14;1.90;99.90
13684;DHT22;6914;53.552;9.908;2023-01-19T06:49:41;2.10;99.90
13684;DHT22;6914;53.552;9.908;2023-01-19T06:52:08;1.90;99.90
13684;DHT22;6914;53.552;9.908;2023-01-19T06:54:35;1.90;99.90
13684;DHT22;6914;53.552;9.908;2023-01-19T06:57:02;1.90;99.90
13684;DHT22;6914;53.552;9.908;2023-01-19T06:59:29;2.20;99.90
13684;DHT22;6914;53.552;9.908;2023-01-19T07:01:56;2.00;99.90
13684;DHT22;6914;53.552;9.908;2023-01-19T07:04:24;1.80;99.90
13684;DHT22;6914;53.552;9.908;2023-01-19T07:06:51;1.90;99.90
13684;DHT22;6914;53.552;9.908;2023-01-19T07:09:18;1.90;99.90
13684;DHT22;6914;53.552;9.908;2023-01-19T07:11:46;1.80;99.90
13684;DHT22;6914;53.552;9.908;2023-01-19T07:14:13;1.90;99.90
13684;DHT22;6914;53.552;9.908;2023-01-19T07:16:41;2.20;99.90
13684;DHT22;6914;53.552;9.908;2023-01-19T07:19:08;1.80;99.90
13684;DHT22;6914;53.552;9.908;2023-01-19T07:21:36;1.80;99.90
13684;DHT22;6914;53.552;9.908;2023-01-19T07:24:04;2.10;99.90
13684;DHT22;6914;53.552;9.908;2023-01-19T07:26:31;1.90;99.90
13684;DHT22;6914;53.552;9.908;2023-01-19T07:28:58;1.80;99.90
13684;DHT22;6914;53.552;9.908;2023-01-19T07:31:24;1.80;99.90
13684;DHT22;6914;53.552;9.908;2023-01-19T07:33:51;1.90;99.90
13684;DHT22;6914;53.552;9.908;2023-01-19T07:36:18;1.90;99.90
13684;DHT22;6914;53.552;9.908;2023-01-19T07:38:46;1.80;99.90
13684;DHT22;6914;53.552;9.908;2023-01-19T07:41:14;1.80;99.90
13684;DHT22;6914;53.552;9.908;2023-01-19T07:43:40;1.90;99.90
13684;DHT22;6914;53.552;9.908;2023-01-19T07:46:08;1.80;99.90
13684;DHT22;6914;53.552;9.908;2023-01-19T07:48:35;1.80;99.90
13684;DHT22;6914;53.552;9.908;2023-01-19T07:51:03;1.90;99.90
13684;DHT22;6914;53.552;9.908;2023-01-19T07:53:33;1.90;99.90
13684;DHT22;6914;53.552;9.908;2023-01-19T07:56:01;1.80;99.90
13684;DHT22;6914;53.552;9.908;2023-01-19T07:58:30;1.80;99.90
13684;DHT22;6914;53.552;9.908;2023-01-19T08:00:57;1.80;99.90
13684;DHT22;6914;53.552;9.908;2023-01-19T08:03:24;1.90;99.90
13684;DHT22;6914;53.552;9.908;2023-01-19T08:05:51;1.90;99.90
13684;DHT22;6914;53.552;9.908;2023-01-19T08:08:19;1.90;99.90
13684;DHT22;6914;53.552;9.908;2023-01-19T08:10:49;1.90;99.90
13684;DHT22;6914;53.552;9.908;2023-01-19T08:13:19;1.80;99.90
13684;DHT22;6914;53.552;9.908;2023-01-19T08:15:48;2.10;99.90
13684;DHT22;6914;53.552;9.908;2023-01-19T08:18:17;2.00;99.90
13684;DHT22;6914;53.552;9.908;2023-01-19T08:20:45;1.90;99.90
13684;DHT22;6914;53.552;9.908;2023-01-19T08:23:12;2.00;99.90
13684;DHT22;6914;53.552;9.908;2023-01-19T08:25:40;2.10;99.90
13684;DHT22;6914;53.552;9.908;2023-01-19T08:28:09;2.10;99.90
13684;DHT22;6914;53.552;9.908;2023-01-19T08:30:38;2.10;99.90
13684;DHT22;6914;53.552;9.908;2023-01-19T08:33:07;2.10;99.90
13684;DHT22;6914;53.552;9.908;2023-01-19T08:35:37;2.10;99.90
13684;DHT22;6914;53.552;9.908;2023-01-19T08:38:04;2.20;99.90
13684;DHT22;6914;53.552;9.908;2023-01-19T08:40:33;2.30;99.90
13684;DHT22;6914;53.552;9.908;2023-01-19T08:43:02;2.30;99.90
13684;DHT22;6914;53.552;9.908;2023-01-19T08:45:32;2.30;99.90
13684;DHT22;6914;53.552;9.908;2023-01-19T08:48:00;2.30;99.90
13684;DHT22;6914;53.552;9.908;2023-01-19T08:50:27;2.40;99.90
13684;DHT22;6914;53.552;9.908;2023-01-19T08:52:55;2.40;99.90
13684;DHT22;6914;53.552;9.908;2023-01-19T08:55:22;2.70;99.90
13684;DHT22;6914;53.552;9.908;2023-01-19T08:57:50;2.50;99.90
13684;DHT22;6914;53.552;9.908;2023-01-19T09:00:19;2.40;99.90
13684;DHT22;6914;53.552;9.908;2023-01-19T09:02:46;2.50;99.90
13684;DHT22;6914;53.552;9.908;2023-01-19T09:05:15;2.10;99.90
13684;DHT22;6914;53.552;9.908;2023-01-19T09:07:45;1.70;99.90
13684;DHT22;6914;53.552;9.908;2023-01-19T09:10:13;2.50;99.90
13684;DHT22;6914;53.552;9.908;2023-01-19T09:12:41;2.50;99.90
13684;DHT22;6914;53.552;9.908;2023-01-19T09:15:10;2.50;99.90
13684;DHT22;6914;53.552;9.908;2023-01-19T09:17:38;2.50;99.90
13684;DHT22;6914;53.552;9.908;2023-01-19T09:20:06;2.50;99.90
13684;DHT22;6914;53.552;9.908;2023-01-19T09:22:35;2.50;99.90
13684;DHT22;6914;53.552;9.908;2023-01-19T09:25:04;2.40;99.90
13684;DHT22;6914;53.552;9.908;2023-01-19T09:27:32;2.60;99.90
13684;DHT22;6914;53.552;9.908;2023-01-19T09:29:59;2.30;99.90
13684;DHT22;6914;53.552;9.908;2023-01-19T09:32:26;2.50;99.90
13684;DHT22;6914;53.552;9.908;2023-01-19T09:34:53;2.40;99.90
13684;DHT22;6914;53.552;9.908;2023-01-19T09:37:21;2.40;99.90
13684;DHT22;6914;53.552;9.908;2023-01-19T09:39:49;1.70;99.90
13684;DHT22;6914;53.552;9.908;2023-01-19T09:42:21;2.30;99.90
13684;DHT22;6914;53.552;9.908;2023-01-19T09:44:50;2.50;99.90
13684;DHT22;6914;53.552;9.908;2023-01-19T09:47:23;2.70;99.90
13684;DHT22;6914;53.552;9.908;2023-01-19T09:49:55;2.50;99.90
13684;DHT22;6914;53.552;9.908;2023-01-19T09:52:24;2.60;99.90
13684;DHT22;6914;53.552;9.908;2023-01-19T09:54:54;2.60;99.90
13684;DHT22;6914;53.552;9.908;2023-01-19T09:57:23;2.20;99.90
13684;DHT22;6914;53.552;9.908;2023-01-19T09:59:51;2.60;99.90
13684;DHT22;6914;53.552;9.908;2023-01-19T10:02:32;2.60;99.90
13684;DHT22;6914;53.552;9.908;2023-01-19T10:05:02;2.60;99.90
13684;DHT22;6914;53.552;9.908;2023-01-19T10:07:41;2.40;99.90
13684;DHT22;6914;53.552;9.908;2023-01-19T10:10:20;2.60;99.90
13684;DHT22;6914;53.552;9.908;2023-01-19T10:12:57;2.80;99.90
13684;DHT22;6914;53.552;9.908;2023-01-19T10:15:46;2.80;99.90
13684;DHT22;6914;53.552;9.908;2023-01-19T10:18:17;2.80;99.90
13684;DHT22;6914;53.552;9.908;2023-01-19T10:20:48;2.80;99.90
13684;DHT22;6914;53.552;9.908;2023-01-19T10:23:34;2.80;99.90
13684;DHT22;6914;53.552;9.908;2023-01-19T10:26:08;2.80;99.90
13684;DHT22;6914;53.552;9.908;2023-01-19T10:28:35;3.00;99.90
13684;DHT22;6914;53.552;9.908;2023-01-19T10:31:04;3.00;99.90
13684;DHT22;6914;53.552;9.908;2023-01-19T10:33:34;3.00;99.90
13684;DHT22;6914;53.552;9.908;2023-01-19T10:36:03;3.10;99.90
13684;DHT22;6914;53.552;9.908;2023-01-19T10:38:32;3.00;99.90
13684;DHT22;6914;53.552;9.908;2023-01-19T10:41:02;3.00;99.90
13684;DHT22;6914;53.552;9.908;2023-01-19T10:43:42;2.90;99.90
13684;DHT22;6914;53.552;9.908;2023-01-19T10:46:27;2.80;99.90
13684;DHT22;6914;53.552;9.908;2023-01-19T10:48:57;2.90;99.90
13684;DHT22;6914;53.552;9.908;2023-01-19T10:51:24;2.90;99.90
13684;DHT22;6914;53.552;9.908;2023-01-19T10:53:57;3.00;99.90
13684;DHT22;6914;53.552;9.908;2023-01-19T10:56:27;2.80;99.90
13684;DHT22;6914;53.552;9.908;2023-01-19T10:58:58;2.70;99.90
13684;DHT22;6914;53.552;9.908;2023-01-19T11:01:26;2.70;99.90
13684;DHT22;6914;53.552;9.908;2023-01-19T11:03:55;2.50;99.90
13684;DHT22;6914;53.552;9.908;2023-01-19T11:06:30;2.80;99.90
13684;DHT22;6914;53.552;9.908;2023-01-19T11:09:15;2.80;99.90
13684;DHT22;6914;53.552;9.908;2023-01-19T11:11:48;2.80;99.90
13684;DHT22;6914;53.552;9.908;2023-01-19T11:14:21;3.00;99.90
13684;DHT22;6914;53.552;9.908;2023-01-19T11:16:52;2.80;99.90
13684;DHT22;6914;53.552;9.908;2023-01-19T11:19:25;3.10;99.90
13684;DHT22;6914;53.552;9.908;2023-01-19T11:22:07;3.00;99.90
13684;DHT22;6914;53.552;9.908;2023-01-19T11:24:37;3.30;99.90
13684;DHT22;6914;53.552;9.908;2023-01-19T11:27:04;2.80;99.90
13684;DHT22;6914;53.552;9.908;2023-01-19T11:29:33;2.80;99.90
13684;DHT22;6914;53.552;9.908;2023-01-19T11:32:09;2.10;99.90
13684;DHT22;6914;53.552;9.908;2023-01-19T11:34:37;2.70;99.90
13684;DHT22;6914;53.552;9.908;2023-01-19T11:37:20;2.80;99.90
13684;DHT22;6914;53.552;9.908;2023-01-19T11:39:54;2.80;99.90
13684;DHT22;6914;53.552;9.908;2023-01-19T11:42:24;2.90;99.90
13684;DHT22;6914;53.552;9.908;2023-01-19T11:44:58;2.90;99.90
13684;DHT22;6914;53.552;9.908;2023-01-19T11:47:28;3.60;99.90
13684;DHT22;6914;53.552;9.908;2023-01-19T11:49:58;2.70;99.90
13684;DHT22;6914;53.552;9.908;2023-01-19T11:52:31;2.80;99.90
13684;DHT22;6914;53.552;9.908;2023-01-19T11:55:02;2.70;99.90
13684;DHT22;6914;53.552;9.908;2023-01-19T11:57:31;2.70;99.90
13684;DHT22;6914;53.552;9.908;2023-01-19T12:00:02;2.80;99.90
13684;DHT22;6914;53.552;9.908;2023-01-19T12:02:36;2.90;99.90
13684;DHT22;6914;53.552;9.908;2023-01-19T12:05:12;2.90;99.90
13684;DHT22;6914;53.552;9.908;2023-01-19T12:07:43;2.80;99.90
13684;DHT22;6914;53.552;9.908;2023-01-19T12:10:22;2.60;99.90
13684;DHT22;6914;53.552;9.908;2023-01-19T12:12:51;2.50;99.90
13684;DHT22;6914;53.552;9.908;2023-01-19T12:15:25;2.60;99.90
13684;DHT22;6914;53.552;9.908;2023-01-19T12:17:58;2.70;99.90
13684;DHT22;6914;53.552;9.908;2023-01-19T12:20:27;2.90;99.90
13684;DHT22;6914;53.552;9.908;2023-01-19T12:23:03;2.60;99.90
13684;DHT22;6914;53.552;9.908;2023-01-19T12:25:43;2.70;99.90
13684;DHT22;6914;53.552;9.908;2023-01-19T12:28:13;2.80;99.90
13684;DHT22;6914;53.552;9.908;2023-01-19T12:30:42;2.80;99.90
13684;DHT22;6914;53.552;9.908;2023-01-19T12:33:56;2.90;99.90
13684;DHT22;6914;53.552;9.908;2023-01-19T12:36:35;2.90;99.90
13684;DHT22;6914;53.552;9.908;2023-01-19T12:39:11;2.90;99.90
13684;DHT22;6914;53.552;9.908;2023-01-19T12:41:41;4.40;99.90
13684;DHT22;6914;53.552;9.908;2023-01-19T12:44:24;2.80;99.90
13684;DHT22;6914;53.552;9.908;2023-01-19T12:46:56;2.60;99.90
13684;DHT22;6914;53.552;9.908;2023-01-19T12:49:31;2.70;99.90
13684;DHT22;6914;53.552;9.908;2023-01-19T12:52:17;3.20;99.90
13684;DHT22;6914;53.552;9.908;2023-01-19T12:54:54;2.10;99.90
13684;DHT22;6914;53.552;9.908;2023-01-19T12:57:25;2.90;99.90
13684;DHT22;6914;53.552;9.908;2023-01-19T12:59:57;2.80;99.90
13684;DHT22;6914;53.552;9.908;2023-01-19T13:02:50;3.00;99.90
13684;DHT22;6914;53.552;9.908;2023-01-19T13:05:22;2.90;99.90
13684;DHT22;6914;53.552;9.908;2023-01-19T13:08:12;2.50;99.90
13684;DHT22;6914;53.552;9.908;2023-01-19T13:10:59;2.90;99.90
13684;DHT22;6914;53.552;9.908;2023-01-19T13:13:40;2.80;99.90
13684;DHT22;6914;53.552;9.908;2023-01-19T13:19:15;3.10;99.90
13684;DHT22;6914;53.552;9.908;2023-01-19T13:21:44;3.10;99.90
13684;DHT22;6914;53.552;9.908;2023-01-19T13:24:13;3.00;99.90
13684;DHT22;6914;53.552;9.908;2023-01-19T13:26:52;2.90;99.90
13684;DHT22;6914;53.552;9.908;2023-01-19T13:29:26;3.50;99.90
13684;DHT22;6914;53.552;9.908;2023-01-19T13:31:55;3.40;99.90
13684;DHT22;6914;53.552;9.908;2023-01-19T13:34:30;2.90;99.90
13684;DHT22;6914;53.552;9.908;2023-01-19T13:37:00;5.00;99.90
13684;DHT22;6914;53.552;9.908;2023-01-19T13:39:31;2.90;99.90
13684;DHT22;6914;53.552;9.908;2023-01-19T13:42:14;1.70;99.90
13684;DHT22;6914;53.552;9.908;2023-01-19T13:44:46;3.10;99.90
13684;DHT22;6914;53.552;9.908;2023-01-19T13:47:20;3.20;99.90
13684;DHT22;6914;53.552;9.908;2023-01-19T13:49:50;2.70;99.90
13684;DHT22;6914;53.552;9.908;2023-01-19T13:52:22;3.10;99.90
13684;DHT22;6914;53.552;9.908;2023-01-19T13:54:53;2.90;99.90
13684;DHT22;6914;53.552;9.908;2023-01-19T13:57:23;2.80;99.90
13684;DHT22;6914;53.552;9.908;2023-01-19T14:00:12;3.30;99.90
13684;DHT22;6914;53.552;9.908;2023-01-19T14:02:50;3.00;99.90
13684;DHT22;6914;53.552;9.908;2023-01-19T14:05:22;3.20;99.90
13684;DHT22;6914;53.552;9.908;2023-01-19T14:08:01;3.20;99.90
13684;DHT22;6914;53.552;9.908;2023-01-19T14:10:36;3.40;99.90
13684;DHT22;6914;53.552;9.908;2023-01-19T14:13:04;3.40;99.90
13684;DHT22;6914;53.552;9.908;2023-01-19T14:15:34;3.40;99.90
13684;DHT22;6914;53.552;9.908;2023-01-19T14:18:10;3.50;99.90
13684;DHT22;6914;53.552;9.908;2023-01-19T14:20:51;3.30;99.90
13684;DHT22;6914;53.552;9.908;2023-01-19T14:23:44;3.20;99.90
13684;DHT22;6914;53.552;9.908;2023-01-19T14:26:42;3.20;99.90
13684;DHT22;6914;53.552;9.908;2023-01-19T14:29:17;3.90;99.90
13684;DHT22;6914;53.552;9.908;2023-01-19T14:31:45;3.60;99.90
13684;DHT22;6914;53.552;9.908;2023-01-19T14:34:42;3.70;99.90
13684;DHT22;6914;53.552;9.908;2023-01-19T14:37:30;3.70;99.90
13684;DHT22;6914;53.552;9.908;2023-01-19T14:40:19;3.40;99.90
13684;DHT22;6914;53.552;9.908;2023-01-19T14:42:51;3.70;99.90
13684;DHT22;6914;53.552;9.908;2023-01-19T14:45:38;3.60;99.90
13684;DHT22;6914;53.552;9.908;2023-01-19T14:48:17;3.70;99.90
13684;DHT22;6914;53.552;9.908;2023-01-19T14:50:47;3.70;99.90
13684;DHT22;6914;53.552;9.908;2023-01-19T14:53:18;3.40;99.90
13684;DHT22;6914;53.552;9.908;2023-01-19T14:55:54;3.80;99.90
13684;DHT22;6914;53.552;9.908;2023-01-19T14:58:38;3.60;99.90
13684;DHT22;6914;53.552;9.908;2023-01-19T15:01:11;4.40;99.90
13684;DHT22;6914;53.552;9.908;2023-01-19T15:03:38;3.60;99.90
13684;DHT22;6914;53.552;9.908;2023-01-19T15:06:11;4.80;99.90
13684;DHT22;6914;53.552;9.908;2023-01-19T15:08:42;4.80;99.90
13684;DHT22;6914;53.552;9.908;2023-01-19T15:11:11;3.50;99.90
13684;DHT22;6914;53.552;9.908;2023-01-19T15:13:39;3.20;99.90
13684;DHT22;6914;53.552;9.908;2023-01-19T15:16:07;3.80;99.90
13684;DHT22;6914;53.552;9.908;2023-01-19T15:18:34;3.20;99.90
13684;DHT22;6914;53.552;9.908;2023-01-19T15:21:02;3.10;99.90
13684;DHT22;6914;53.552;9.908;2023-01-19T15:23:29;3.00;99.90
13684;DHT22;6914;53.552;9.908;2023-01-19T15:26:03;3.10;99.90
13684;DHT22;6914;53.552;9.908;2023-01-19T15:28:30;3.00;99.90
13684;DHT22;6914;53.552;9.908;2023-01-19T15:30:58;2.90;99.90
13684;DHT22;6914;53.552;9.908;2023-01-19T15:33:27;2.90;99.90
13684;DHT22;6914;53.552;9.908;2023-01-19T15:35:55;2.80;99.90
13684;DHT22;6914;53.552;9.908;2023-01-19T15:38:23;2.70;99.90
13684;DHT22;6914;53.552;9.908;2023-01-19T15:40:53;2.60;99.90
13684;DHT22;6914;53.552;9.908;2023-01-19T15:43:21;2.50;99.90
13684;DHT22;6914;53.552;9.908;2023-01-19T15:45:52;2.60;99.90
13684;DHT22;6914;53.552;9.908;2023-01-19T15:48:22;2.70;99.90
13684;DHT22;6914;53.552;9.908;2023-01-19T15:50:50;2.70;99.90
13684;DHT22;6914;53.552;9.908;2023-01-19T15:53:19;2.60;99.90
13684;DHT22;6914;53.552;9.908;2023-01-19T15:55:49;2.80;99.90
13684;DHT22;6914;53.552;9.908;2023-01-19T15:58:17;2.70;99.90
13684;DHT22;6914;53.552;9.908;2023-01-19T16:00:54;2.50;99.90
13684;DHT22;6914;53.552;9.908;2023-01-19T16:03:21;2.00;99.90
13684;DHT22;6914;53.552;9.908;2023-01-19T16:05:49;2.20;99.90
13684;DHT22;6914;53.552;9.908;2023-01-19T16:08:16;2.50;99.90
13684;DHT22;6914;53.552;9.908;2023-01-19T16:10:43;2.60;99.90
13684;DHT22;6914;53.552;9.908;2023-01-19T16:13:11;2.40;99.90
13684;DHT22;6914;53.552;9.908;2023-01-19T16:15:38;2.50;99.90
13684;DHT22;6914;53.552;9.908;2023-01-19T16:18:08;2.10;99.90
13684;DHT22;6914;53.552;9.908;2023-01-19T16:20:35;2.40;99.90
13684;DHT22;6914;53.552;9.908;2023-01-19T16:23:02;2.40;99.90
13684;DHT22;6914;53.552;9.908;2023-01-19T16:25:29;2.20;99.90
13684;DHT22;6914;53.552;9.908;2023-01-19T16:27:56;2.30;99.90